Time;durP1;ratioP1;P1;durP2;ratioP2;P2;SDS_P1;SDS_P2;PMS_P1;PMS_P2;Temp;Humidity;BMP_temperature;BMP_pressure;BME280_temperature;BME280_humidity;BME280_pressure;Samples;Min_cycle;Max_cycle;Signal;HPM_P1;HPM_P2
2022/08/16 00:01:48;;;;;;;13.27;11.87;;;;;;;23.35;64.92;100095.22;5098396;28;20716;-66
2022/08/16 00:04:13;;;;;;;13.43;12.23;;;;;;;23.51;64.63;100096.09;5098288;28;20406;-67
2022/08/16 00:06:39;;;;;;;12.10;11.10;;;;;;;23.61;63.69;100091.13;5098158;28;20402;-66
2022/08/16 00:09:05;;;;;;;11.93;10.93;;;;;;;23.65;63.37;100090.03;5098308;28;20172;-68
2022/08/16 00:11:31;;;;;;;13.43;12.33;;;;;;;23.83;63.03;100089.94;5098240;28;20475;-66
2022/08/16 00:13:56;;;;;;;12.37;11.47;;;;;;;23.44;63.51;100094.72;5098591;28;20394;-66
2022/08/16 00:16:24;;;;;;;13.30;12.30;;;;;;;23.45;63.53;100098.22;5098357;28;20172;-67
2022/08/16 00:18:50;;;;;;;12.37;11.27;;;;;;;23.45;63.69;100096.44;5098296;28;20168;-67
2022/08/16 00:21:15;;;;;;;13.10;12.10;;;;;;;23.69;63.22;100096.00;5097671;28;20464;-65
2022/08/16 00:23:40;;;;;;;14.63;13.43;;;;;;;23.78;63.14;100108.81;5098006;28;20169;-65
2022/08/16 00:26:06;;;;;;;14.43;13.10;;;;;;;23.49;64.75;100119.28;5097363;28;20190;-67
2022/08/16 00:28:32;;;;;;;13.83;12.77;;;;;;;23.54;64.99;100117.22;5098922;28;20164;-66
2022/08/16 00:30:57;;;;;;;14.57;13.37;;;;;;;23.42;65.60;100112.56;5098285;28;20407;-70
2022/08/16 00:33:23;;;;;;;14.93;13.60;;;;;;;23.22;66.90;100116.28;5097939;28;20168;-66
2022/08/16 00:35:48;;;;;;;14.60;13.50;;;;;;;23.11;66.58;100114.19;5098613;28;20164;-66
2022/08/16 00:38:14;;;;;;;13.57;12.37;;;;;;;23.23;66.62;100122.47;5098299;28;20175;-66
2022/08/16 00:40:45;;;;;;;15.67;14.27;;;;;;;22.91;67.79;100128.50;5097931;28;20541;-68
2022/08/16 00:43:34;;;;;;;14.67;13.37;;;;;;;23.29;67.09;100132.78;5097481;28;20457;-67
2022/08/16 00:46:20;;;;;;;16.13;14.73;;;;;;;23.43;67.26;100138.22;5098117;28;20432;-66
2022/08/16 00:48:46;;;;;;;16.43;15.03;;;;;;;22.71;68.91;100134.84;5097605;28;20410;-66
2022/08/16 00:51:15;;;;;;;15.93;14.53;;;;;;;23.34;67.81;100136.03;5098068;28;20411;-65
2022/08/16 00:53:40;;;;;;;16.07;14.87;;;;;;;23.33;67.75;100139.66;5097109;28;20414;-66
2022/08/16 00:56:09;;;;;;;16.57;15.17;;;;;;;23.21;68.18;100146.47;5098166;28;20417;-67
2022/08/16 00:58:37;;;;;;;16.70;15.33;;;;;;;22.93;69.08;100141.72;5098037;28;20169;-65
2022/08/16 01:01:04;;;;;;;16.53;15.10;;;;;;;23.33;68.19;100144.97;5097778;28;20410;-66
2022/08/16 01:03:29;;;;;;;16.37;15.07;;;;;;;23.18;69.18;100147.50;5097994;28;20658;-66
2022/08/16 01:05:55;;;;;;;16.80;15.50;;;;;;;23.29;67.47;100146.09;5097050;28;20430;-66
2022/08/16 01:08:23;;;;;;;16.70;15.40;;;;;;;23.16;68.36;100149.38;5097198;28;20180;-65
2022/08/16 01:10:49;;;;;;;17.63;16.13;;;;;;;23.39;66.33;100144.63;5098245;28;20206;-67
2022/08/16 01:13:19;;;;;;;17.20;15.50;;;;;;;23.17;67.72;100142.28;5097702;28;20422;-68
2022/08/16 01:15:49;;;;;;;17.60;16.00;;;;;;;23.46;66.78;100155.81;5097100;28;20449;-66
2022/08/16 01:18:17;;;;;;;17.57;16.07;;;;;;;23.48;67.93;100154.78;5100255;28;20823;-69
2022/08/16 01:20:57;;;;;;;18.43;16.90;;;;;;;23.46;67.45;100151.38;5083831;28;20831;-65
2022/08/16 01:23:49;;;;;;;18.50;16.60;;;;;;;23.35;67.48;100148.41;5100548;28;20422;-65
2022/08/16 01:26:15;;;;;;;17.03;15.63;;;;;;;23.61;66.50;100143.47;5100675;28;20487;-66
2022/08/16 01:28:41;;;;;;;18.77;17.07;;;;;;;23.45;67.08;100154.09;5083590;28;20418;-66
2022/08/16 01:31:09;;;;;;;19.30;17.70;;;;;;;23.57;66.51;100153.44;5101278;28;20418;-68
2022/08/16 01:33:34;;;;;;;18.97;17.37;;;;;;;23.67;67.08;100152.00;5101021;28;20451;-66
2022/08/16 01:36:05;;;;;;;18.90;17.30;;;;;;;23.50;67.66;100149.38;5101182;28;20418;-67
2022/08/16 01:38:36;;;;;;;19.40;17.90;;;;;;;23.49;67.93;100151.19;5100470;28;20505;-66
2022/08/16 01:41:13;;;;;;;20.03;18.37;;;;;;;23.03;69.17;100150.94;5101053;28;20426;-67
2022/08/16 01:43:40;;;;;;;19.77;18.23;;;;;;;23.21;68.90;100151.81;5100887;28;20439;-66
2022/08/16 01:46:16;;;;;;;19.50;17.90;;;;;;;23.38;69.32;100156.22;5101015;28;20418;-66
2022/08/16 01:48:41;;;;;;;21.43;19.40;;;;;;;23.10;70.15;100164.78;5100458;28;20479;-67
2022/08/16 01:51:07;;;;;;;21.10;19.20;;;;;;;23.19;69.11;100170.50;5100932;28;20418;-66
2022/08/16 01:53:32;;;;;;;20.40;18.67;;;;;;;22.92;70.08;100166.56;5100878;28;20486;-65
2022/08/16 01:55:57;;;;;;;20.50;18.50;;;;;;;22.99;69.96;100160.00;5100246;28;20310;-65
2022/08/16 01:58:23;;;;;;;21.70;19.03;;;;;;;23.07;69.59;100165.78;5101122;28;20448;-66
2022/08/16 02:00:49;;;;;;;21.83;19.97;;;;;;;23.07;68.95;100165.78;5083063;28;20249;-65
2022/08/16 02:03:14;;;;;;;20.23;18.43;;;;;;;22.95;69.63;100167.28;5100257;28;20238;-65
2022/08/16 02:05:40;;;;;;;22.50;20.50;;;;;;;22.92;70.40;100171.88;5100526;28;20455;-65
2022/08/16 02:08:06;;;;;;;20.57;18.67;;;;;;;23.11;70.19;100182.41;5100576;28;20190;-67
2022/08/16 02:10:33;;;;;;;21.03;19.23;;;;;;;22.84;70.66;100175.78;5100995;28;20263;-65
2022/08/16 02:12:59;;;;;;;20.77;19.17;;;;;;;22.69;70.76;100181.88;5100488;28;20418;-67
2022/08/16 02:15:26;;;;;;;21.57;19.67;;;;;;;23.02;69.89;100173.13;5100496;28;20783;-66
2022/08/16 02:17:53;;;;;;;19.37;17.87;;;;;;;22.93;69.56;100169.13;5100914;28;20207;-65
2022/08/16 02:20:19;;;;;;;22.37;20.17;;;;;;;22.88;69.48;100181.81;5099800;28;20396;-66
2022/08/16 02:22:45;;;;;;;21.83;20.03;;;;;;;22.97;68.93;100180.47;5099514;28;20453;-66
2022/08/16 02:25:13;;;;;;;20.93;19.20;;;;;;;22.62;70.28;100188.44;5100453;28;20237;-65
2022/08/16 02:27:40;;;;;;;22.63;20.73;;;;;;;22.52;70.30;100180.06;5100240;28;20220;-65
2022/08/16 02:30:07;;;;;;;20.23;18.43;;;;;;;22.64;70.41;100175.94;5099271;28;20446;-65
2022/08/16 02:32:33;;;;;;;22.60;20.33;;;;;;;22.44;71.33;100184.88;5100651;28;20402;-66
2022/08/16 02:34:59;;;;;;;22.50;20.60;;;;;;;22.64;70.52;100190.06;5100008;28;20771;-65
2022/08/16 02:37:24;;;;;;;20.13;18.33;;;;;;;22.69;70.16;100176.56;5099955;28;20161;-66
2022/08/16 02:39:49;;;;;;;21.50;19.27;;;;;;;22.70;70.41;100178.28;5100666;28;20485;-65
2022/08/16 02:42:15;;;;;;;20.23;18.53;;;;;;;22.46;70.97;100178.56;5099883;28;20204;-65
2022/08/16 02:44:40;;;;;;;19.67;17.97;;;;;;;22.62;70.55;100173.34;5099770;28;20568;-66
2022/08/16 02:47:06;;;;;;;22.70;20.60;;;;;;;22.52;70.88;100175.59;5099642;28;20207;-65
2022/08/16 02:49:31;;;;;;;20.93;19.23;;;;;;;22.65;70.73;100180.28;5099783;28;20168;-65
2022/08/16 02:51:56;;;;;;;22.10;20.30;;;;;;;22.57;70.93;100177.16;5099035;28;20255;-65
2022/08/16 02:54:22;;;;;;;22.23;20.33;;;;;;;22.49;71.37;100183.72;5099584;28;20272;-66
2022/08/16 02:56:47;;;;;;;21.00;19.10;;;;;;;22.41;72.27;100180.59;5099764;28;20169;-67
2022/08/16 02:59:13;;;;;;;23.40;21.30;;;;;;;22.45;71.35;100179.50;5099688;28;20222;-65
2022/08/16 03:01:40;;;;;;;21.87;19.87;;;;;;;22.36;71.82;100179.94;5099497;28;20215;-66
2022/08/16 03:04:06;;;;;;;23.70;21.60;;;;;;;22.56;71.56;100175.47;5099619;28;20184;-65
2022/08/16 03:06:32;;;;;;;22.83;20.90;;;;;;;22.33;72.14;100174.75;5099824;28;20500;-65
2022/08/16 03:08:58;;;;;;;23.70;21.60;;;;;;;22.31;72.29;100172.19;5099471;28;20493;-66
2022/08/16 03:11:24;;;;;;;23.67;21.77;;;;;;;22.21;72.41;100171.75;5099498;28;20418;-64
2022/08/16 03:13:52;;;;;;;22.63;20.63;;;;;;;22.24;72.35;100172.53;5099684;28;20686;-65
2022/08/16 03:16:19;;;;;;;25.63;23.23;;;;;;;22.30;72.24;100172.22;5099266;28;20168;-66
2022/08/16 03:18:44;;;;;;;24.83;22.47;;;;;;;22.17;72.67;100169.31;5099237;28;20413;-67
2022/08/16 03:21:11;;;;;;;26.17;23.97;;;;;;;22.04;73.49;100175.22;5099764;28;20406;-66
2022/08/16 03:23:37;;;;;;;25.20;23.00;;;;;;;22.00;73.52;100171.00;5099160;28;20172;-66
2022/08/16 03:26:02;;;;;;;26.10;24.00;;;;;;;22.11;72.77;100175.78;5099004;28;20495;-65
2022/08/16 03:28:27;;;;;;;24.27;22.07;;;;;;;22.13;73.62;100173.91;5099724;28;20196;-65
2022/08/16 03:30:53;;;;;;;24.40;22.40;;;;;;;22.14;73.21;100172.13;5099017;28;20187;-65
2022/08/16 03:33:18;;;;;;;24.67;22.67;;;;;;;22.10;73.14;100163.44;5098706;28;20176;-66
2022/08/16 03:35:44;;;;;;;25.17;23.07;;;;;;;21.79;74.33;100172.84;5099240;28;20169;-65
2022/08/16 03:38:12;;;;;;;25.13;22.93;;;;;;;22.08;73.35;100173.25;5098935;28;20176;-65
2022/08/16 03:40:37;;;;;;;26.60;24.20;;;;;;;22.20;72.63;100153.22;5098913;28;20251;-66
2022/08/16 03:43:05;;;;;;;25.77;23.33;;;;;;;22.07;73.15;100168.91;5099016;28;20842;-66
2022/08/16 03:45:32;;;;;;;25.37;23.30;;;;;;;21.80;74.08;100169.25;5098906;28;20590;-65
2022/08/16 03:47:57;;;;;;;27.10;24.80;;;;;;;22.21;72.34;100161.13;5098780;28;20432;-65
2022/08/16 03:50:23;;;;;;;25.50;23.33;;;;;;;22.09;73.19;100161.72;5099056;28;20403;-66
2022/08/16 03:52:48;;;;;;;26.70;24.50;;;;;;;22.29;72.45;100162.56;5098925;28;20530;-67
2022/08/16 03:55:14;;;;;;;25.50;23.43;;;;;;;22.29;72.25;100162.56;5098446;28;20633;-65
2022/08/16 03:57:39;;;;;;;26.90;24.70;;;;;;;22.26;72.31;100166.22;5099056;28;20168;-65
2022/08/16 04:00:14;;;;;;;26.17;24.00;;;;;;;22.25;72.66;100171.63;5098571;28;20289;-65
2022/08/16 04:02:41;;;;;;;24.37;22.00;;;;;;;22.41;71.77;100167.31;5098472;28;20227;-64
2022/08/16 04:05:07;;;;;;;25.20;23.00;;;;;;;22.43;72.17;100165.41;5098382;28;20876;-64
2022/08/16 04:07:32;;;;;;;22.40;20.70;;;;;;;22.49;71.56;100167.78;5098504;28;20516;-65
2022/08/16 04:09:58;;;;;;;27.00;24.70;;;;;;;22.33;72.34;100172.94;5098894;28;20502;-66
2022/08/16 04:12:23;;;;;;;27.70;25.30;;;;;;;22.03;73.59;100178.78;5098337;28;20179;-66
2022/08/16 04:14:48;;;;;;;25.00;22.90;;;;;;;22.33;72.51;100180.06;5098273;28;20439;-65
2022/08/16 04:17:15;;;;;;;26.80;24.50;;;;;;;22.00;73.46;100188.69;5098690;28;20174;-66
2022/08/16 04:19:41;;;;;;;28.40;26.00;;;;;;;22.16;72.95;100183.53;5097316;28;20282;-64
2022/08/16 04:22:06;;;;;;;24.80;22.60;;;;;;;22.37;72.24;100179.00;5098292;28;20556;-65
2022/08/16 04:24:32;;;;;;;26.40;24.00;;;;;;;22.27;72.72;100172.38;5098305;28;20418;-65
2022/08/16 04:26:57;;;;;;;28.97;26.20;;;;;;;22.28;72.77;100176.78;5098004;28;20200;-65
2022/08/16 04:29:23;;;;;;;28.00;25.50;;;;;;;22.30;72.40;100182.84;5098149;28;20576;-64
2022/08/16 04:31:49;;;;;;;28.97;26.40;;;;;;;22.35;72.31;100188.84;5098661;28;20188;-66
2022/08/16 04:34:15;;;;;;;27.93;25.27;;;;;;;22.03;73.34;100199.19;5097282;28;20186;-65
2022/08/16 04:36:40;;;;;;;28.00;25.40;;;;;;;22.14;73.30;100194.22;5097346;28;20419;-65
2022/08/16 04:39:06;;;;;;;27.50;24.97;;;;;;;22.06;73.50;100198.19;5098658;28;20173;-65
2022/08/16 04:41:32;;;;;;;28.50;25.80;;;;;;;22.03;73.94;100199.19;5097937;28;20200;-65
2022/08/16 04:43:58;;;;;;;26.57;24.30;;;;;;;22.19;74.33;100194.88;5097907;28;20179;-65
2022/08/16 04:46:23;;;;;;;27.70;25.40;;;;;;;22.13;73.60;100196.94;5098290;28;20407;-65
2022/08/16 04:48:48;;;;;;;27.97;25.57;;;;;;;22.26;72.80;100195.44;5097964;28;20176;-66
2022/08/16 04:51:14;;;;;;;28.70;26.30;;;;;;;22.26;73.06;100197.22;5097821;28;20229;-65
2022/08/16 04:53:39;;;;;;;28.47;25.87;;;;;;;22.61;71.47;100200.88;5101461;28;20188;-65
2022/08/16 04:56:05;;;;;;;27.37;25.07;;;;;;;22.63;71.59;100212.25;5101879;28;20168;-65
2022/08/16 04:58:32;;;;;;;27.33;25.03;;;;;;;22.45;71.47;100208.72;5101804;28;20237;-66
2022/08/16 05:00:58;;;;;;;28.37;25.87;;;;;;;22.21;72.18;100222.19;5102597;28;20180;-65
2022/08/16 05:03:23;;;;;;;29.63;26.73;;;;;;;22.47;72.30;100213.94;5101747;28;20468;-66
2022/08/16 05:05:50;;;;;;;30.27;27.23;;;;;;;22.62;71.40;100221.16;5101751;28;20179;-65
2022/08/16 05:08:15;;;;;;;28.40;25.80;;;;;;;22.52;72.02;100218.09;5102163;28;20187;-66
2022/08/16 05:10:41;;;;;;;30.17;27.40;;;;;;;22.62;72.03;100228.28;5101760;28;20531;-65
2022/08/16 05:13:07;;;;;;;29.70;26.53;;;;;;;22.80;70.71;100224.72;5101436;28;20173;-65
2022/08/16 05:15:33;;;;;;;29.73;27.23;;;;;;;22.64;72.05;100229.94;5101179;28;20575;-65
2022/08/16 05:17:58;;;;;;;29.67;27.27;;;;;;;22.75;71.35;100220.59;5101500;28;20420;-65
2022/08/16 05:20:24;;;;;;;30.33;26.10;;;;;;;22.61;71.63;100230.09;5101447;28;20736;-65
2022/08/16 05:22:49;;;;;;;29.37;26.77;;;;;;;22.18;73.47;100234.78;5101265;28;20192;-65
2022/08/16 05:25:15;;;;;;;29.67;26.87;;;;;;;22.44;73.00;100236.19;5101387;28;20236;-66
2022/08/16 05:27:41;;;;;;;27.17;24.83;;;;;;;22.59;72.21;100231.94;5101268;28;20217;-65
2022/08/16 05:30:07;;;;;;;28.33;25.93;;;;;;;22.51;72.66;100236.78;5101658;28;20456;-65
2022/08/16 05:32:34;;;;;;;29.10;26.00;;;;;;;22.33;72.40;100238.50;5101392;28;20164;-67
2022/08/16 05:34:59;;;;;;;29.30;26.70;;;;;;;22.83;71.08;100229.88;5101322;28;20420;-66
2022/08/16 05:37:25;;;;;;;28.00;25.70;;;;;;;22.70;71.26;100239.41;5101783;28;20657;-67
2022/08/16 05:39:51;;;;;;;27.73;25.33;;;;;;;22.43;71.85;100254.88;5101364;28;20172;-65
2022/08/16 05:42:16;;;;;;;27.17;24.80;;;;;;;22.35;72.51;100256.13;5101180;28;20200;-66
2022/08/16 05:44:41;;;;;;;26.57;24.17;;;;;;;22.59;71.45;100252.34;5101369;28;20156;-65
2022/08/16 05:47:07;;;;;;;26.80;24.53;;;;;;;22.77;70.45;100253.25;5101057;28;20217;-66
2022/08/16 05:49:32;;;;;;;26.60;24.30;;;;;;;22.64;70.85;100263.63;5100938;28;20453;-64
2022/08/16 05:51:58;;;;;;;26.93;24.63;;;;;;;22.96;70.27;100269.13;5101332;28;20164;-64
2022/08/16 05:54:26;;;;;;;27.37;25.03;;;;;;;23.27;69.39;100275.59;5100518;28;20216;-65
2022/08/16 05:56:53;;;;;;;26.73;24.13;;;;;;;23.44;67.95;100266.78;5100945;28;20643;-65
2022/08/16 05:59:19;;;;;;;23.60;21.70;;;;;;;23.38;68.12;100281.22;5100512;28;20394;-65
2022/08/16 06:01:44;;;;;;;25.53;23.43;;;;;;;22.67;69.88;100284.72;5100000;28;20469;-65
2022/08/16 06:04:11;;;;;;;24.40;22.23;;;;;;;23.15;68.28;100275.31;5099313;28;20419;-71
2022/08/16 06:06:36;;;;;;;24.53;22.20;;;;;;;23.34;68.16;100285.88;5101313;28;20164;-66
2022/08/16 06:09:02;;;;;;;23.63;21.60;;;;;;;24.08;65.21;100273.16;5100520;28;20410;-71
2022/08/16 06:11:28;;;;;;;24.10;21.93;;;;;;;23.64;66.10;100277.22;5098956;28;20176;-72
2022/08/16 06:13:53;;;;;;;23.00;21.00;;;;;;;23.78;65.53;100281.81;5082879;28;20784;-68
2022/08/16 06:16:19;;;;;;;23.50;21.43;;;;;;;24.39;63.47;100282.13;5100466;28;20187;-69
2022/08/16 06:18:44;;;;;;;20.93;19.33;;;;;;;24.87;61.90;100275.00;5100306;28;20172;-68
2022/08/16 06:21:12;;;;;;;21.17;18.90;;;;;;;24.84;62.14;100277.88;5100767;28;20169;-69
2022/08/16 06:23:37;;;;;;;22.17;20.17;;;;;;;24.89;61.72;100278.44;5100088;28;20176;-69
2022/08/16 06:26:04;;;;;;;20.97;19.27;;;;;;;25.01;61.28;100276.03;5100048;28;20737;-69
2022/08/16 06:28:29;;;;;;;22.60;20.63;;;;;;;24.61;62.25;100283.59;5099845;28;20504;-68
2022/08/16 06:30:55;;;;;;;20.70;18.73;;;;;;;24.43;62.40;100285.50;5100106;28;20418;-68
2022/08/16 06:33:20;;;;;;;20.27;18.50;;;;;;;24.80;61.61;100284.31;5099971;28;20260;-69
2022/08/16 06:35:46;;;;;;;19.77;17.90;;;;;;;25.16;60.13;100288.44;5100391;28;20164;-70
2022/08/16 06:38:11;;;;;;;19.03;17.47;;;;;;;26.84;55.20;100282.59;5100068;28;20160;-70
2022/08/16 06:40:37;;;;;;;19.40;17.50;;;;;;;27.01;54.85;100286.00;5099792;28;20191;-70
2022/08/16 06:43:02;;;;;;;18.30;16.70;;;;;;;26.93;54.32;100282.94;5100316;28;20261;-71
2022/08/16 06:45:28;;;;;;;17.73;16.03;;;;;;;27.66;53.20;100277.13;5099579;28;20251;-71
2022/08/16 06:47:53;;;;;;;18.37;16.70;;;;;;;28.99;49.67;100280.16;5099672;28;20168;-71
2022/08/16 06:50:19;;;;;;;17.27;15.77;;;;;;;28.19;50.73;100276.16;5100291;28;20156;-70
2022/08/16 06:52:45;;;;;;;16.47;15.17;;;;;;;27.87;51.78;100288.16;5099735;28;20176;-70
2022/08/16 06:55:12;;;;;;;16.50;15.20;;;;;;;29.14;49.52;100281.69;5099505;28;20597;-70
2022/08/16 06:57:38;;;;;;;15.10;13.87;;;;;;;29.44;48.10;100280.34;5099983;28;20414;-69
2022/08/16 07:00:11;;;;;;;16.20;14.60;;;;;;;28.64;49.73;100287.19;5099616;28;20822;-70
2022/08/16 07:02:38;;;;;;;15.73;14.43;;;;;;;29.37;47.98;100289.84;5099483;28;20469;-70
2022/08/16 07:05:05;;;;;;;14.30;13.20;;;;;;;28.72;49.03;100286.63;5099443;28;20419;-69
2022/08/16 07:07:31;;;;;;;14.50;13.30;;;;;;;29.29;47.72;100281.53;5099506;28;20471;-68
2022/08/16 07:09:56;;;;;;;14.60;13.20;;;;;;;29.06;48.50;100292.16;5099698;28;20411;-67
2022/08/16 07:12:22;;;;;;;15.40;14.07;;;;;;;29.40;47.76;100285.09;5099303;28;20168;-70
2022/08/16 07:14:48;;;;;;;14.80;13.33;;;;;;;29.60;47.47;100289.91;5099051;28;20472;-69
2022/08/16 07:17:14;;;;;;;15.10;13.60;;;;;;;29.34;48.29;100290.94;5099881;28;20210;-69
2022/08/16 07:19:39;;;;;;;12.63;11.63;;;;;;;29.63;46.63;100282.44;5099082;28;20414;-70
2022/08/16 07:22:05;;;;;;;14.07;12.87;;;;;;;28.97;48.93;100284.78;5099203;28;20506;-70
2022/08/16 07:24:30;;;;;;;13.33;12.13;;;;;;;28.97;48.22;100291.03;5099483;28;20266;-68
2022/08/16 07:26:57;;;;;;;14.90;12.57;;;;;;;29.36;47.77;100293.50;5099131;28;20198;-70
2022/08/16 07:29:22;;;;;;;14.93;12.00;;;;;;;29.55;48.08;100292.94;5098975;28;20160;-69
2022/08/16 07:31:47;;;;;;;17.30;13.43;;;;;;;29.76;46.69;100294.94;5098523;28;20834;-70
2022/08/16 07:34:13;;;;;;;18.23;13.80;;;;;;;30.29;44.89;100284.44;5098901;28;20297;-70
2022/08/16 07:36:40;;;;;;;13.17;11.83;;;;;;;31.31;43.03;100291.38;5098897;28;20176;-70
2022/08/16 07:39:07;;;;;;;14.10;12.90;;;;;;;30.09;45.28;100304.84;5099220;28;20176;-69
2022/08/16 07:41:34;;;;;;;14.43;13.13;;;;;;;30.09;45.52;100301.31;5098697;28;20461;-69
2022/08/16 07:43:59;;;;;;;13.10;11.90;;;;;;;32.41;40.19;100298.94;5098663;28;20662;-70
2022/08/16 07:46:25;;;;;;;13.60;11.77;;;;;;;31.74;41.90;100306.59;5099435;28;20472;-69
2022/08/16 07:48:50;;;;;;;12.70;11.60;;;;;;;32.98;39.25;100301.06;5098779;28;20175;-70
2022/08/16 07:51:16;;;;;;;12.97;10.53;;;;;;;33.20;39.01;100299.91;5098757;28;20196;-71
2022/08/16 07:53:43;;;;;;;9.90;9.00;;;;;;;32.76;39.17;100308.44;5098618;28;20168;-69
2022/08/16 07:56:08;;;;;;;12.10;11.03;;;;;;;33.37;38.31;100303.78;5098686;28;20168;-71
2022/08/16 07:58:34;;;;;;;11.10;10.10;;;;;;;33.92;36.90;100313.88;5098561;28;20657;-69
2022/08/16 08:01:00;;;;;;;12.20;10.40;;;;;;;33.57;37.27;100307.28;5098234;28;20210;-68
2022/08/16 08:03:26;;;;;;;11.70;10.60;;;;;;;33.05;38.82;100311.13;5098098;28;20576;-68
2022/08/16 08:05:51;;;;;;;11.20;10.20;;;;;;;33.51;37.71;100303.31;5098334;28;20505;-70
2022/08/16 08:08:17;;;;;;;11.80;10.80;;;;;;;32.87;38.61;100305.59;5098939;28;20164;-70
2022/08/16 08:10:43;;;;;;;11.33;10.33;;;;;;;33.91;37.54;100312.22;5098365;28;20213;-70
2022/08/16 08:13:08;;;;;;;11.57;10.67;;;;;;;33.40;37.91;100317.00;5098423;28;20423;-70
2022/08/16 08:15:34;;;;;;;9.77;8.97;;;;;;;33.16;38.21;100303.91;5098687;28;20221;-70
2022/08/16 08:18:01;;;;;;;10.93;10.00;;;;;;;33.69;36.99;100316.94;5098603;28;20424;-70
2022/08/16 08:20:26;;;;;;;9.77;9.00;;;;;;;33.27;36.63;100316.44;5098251;28;20222;-69
2022/08/16 08:22:53;;;;;;;8.60;7.90;;;;;;;34.13;36.27;100319.09;5098416;28;20454;-69
2022/08/16 08:25:19;;;;;;;9.23;8.43;;;;;;;34.00;36.44;100329.38;5097521;28;20610;-68
2022/08/16 08:27:45;;;;;;;9.40;8.60;;;;;;;33.96;37.11;100334.22;5097509;28;20414;-68
2022/08/16 08:30:11;;;;;;;10.87;9.57;;;;;;;34.64;35.61;100343.06;5098752;28;20168;-70
2022/08/16 08:32:37;;;;;;;9.30;8.60;;;;;;;34.04;36.49;100347.03;5098269;28;20816;-69
2022/08/16 08:35:03;;;;;;;10.47;9.50;;;;;;;34.41;34.95;100338.91;5098014;28;20418;-69
2022/08/16 08:37:29;;;;;;;9.23;8.40;;;;;;;34.16;35.35;100345.00;5098648;28;20167;-70
2022/08/16 08:39:55;;;;;;;9.13;8.40;;;;;;;34.49;35.94;100340.00;5098162;28;20803;-69
2022/08/16 08:42:20;;;;;;;10.47;9.47;;;;;;;34.90;35.44;100343.22;5097957;28;20438;-69
2022/08/16 08:44:46;;;;;;;9.27;8.23;;;;;;;34.00;36.59;100345.63;5098230;28;20190;-70
2022/08/16 08:47:11;;;;;;;10.00;9.20;;;;;;;36.22;32.76;100342.38;5097969;28;20194;-70
2022/08/16 08:49:37;;;;;;;9.30;8.50;;;;;;;33.38;37.08;100340.59;5097885;28;20175;-72
2022/08/16 08:52:03;;;;;;;10.40;8.37;;;;;;;34.64;35.22;100348.47;5098790;28;20166;-72
2022/08/16 08:54:29;;;;;;;8.47;7.63;;;;;;;33.85;36.19;100346.06;5097622;28;20243;-71
2022/08/16 08:56:55;;;;;;;8.93;8.10;;;;;;;33.80;36.45;100345.69;5098032;28;20414;-72
2022/08/16 08:59:20;;;;;;;9.83;7.43;;;;;;;34.66;34.69;100338.34;5098202;28;20833;-72
2022/08/16 09:01:46;;;;;;;8.63;7.93;;;;;;;36.03;32.80;100339.91;5097750;28;20435;-69
2022/08/16 09:04:12;;;;;;;8.77;8.00;;;;;;;34.40;34.80;100347.19;5097826;28;20168;-68
2022/08/16 09:06:37;;;;;;;8.67;7.97;;;;;;;34.93;34.39;100344.78;5097456;28;20259;-67
2022/08/16 09:09:04;;;;;;;9.33;8.53;;;;;;;33.41;36.15;100348.41;5097776;28;20175;-68
2022/08/16 09:11:29;;;;;;;8.80;7.93;;;;;;;34.71;34.10;100355.00;5097816;28;20165;-68
2022/08/16 09:13:55;;;;;;;10.07;9.07;;;;;;;35.51;32.82;100348.88;5097941;28;20675;-70
2022/08/16 09:16:20;;;;;;;9.40;7.77;;;;;;;33.72;35.34;100351.78;5097824;28;20178;-70
2022/08/16 09:18:46;;;;;;;8.53;7.67;;;;;;;34.58;33.98;100355.34;5097560;28;20459;-68
2022/08/16 09:21:14;;;;;;;8.93;7.73;;;;;;;34.32;34.42;100355.22;5097959;28;20191;-69
2022/08/16 09:23:40;;;;;;;9.23;8.63;;;;;;;33.53;34.89;100354.50;5097431;28;20474;-70
2022/08/16 09:26:09;;;;;;;9.53;8.57;;;;;;;34.35;34.18;100355.75;5097645;28;20462;-69
2022/08/16 09:28:36;;;;;;;8.57;7.77;;;;;;;35.49;32.46;100359.84;5098048;28;20203;-69
2022/08/16 09:31:02;;;;;;;8.40;7.70;;;;;;;35.14;33.06;100358.88;5097700;28;20410;-69
2022/08/16 09:33:28;;;;;;;10.73;7.77;;;;;;;34.41;33.67;100360.56;5097284;28;20442;-70
2022/08/16 09:35:54;;;;;;;9.23;7.33;;;;;;;34.99;32.39;100368.53;5098260;28;20513;-70
2022/08/16 09:38:19;;;;;;;8.07;7.47;;;;;;;35.36;32.43;100362.13;5098785;28;20243;-69
2022/08/16 09:40:45;;;;;;;8.50;7.60;;;;;;;36.16;31.43;100369.31;5101213;28;20168;-69
2022/08/16 09:43:14;;;;;;;8.30;6.60;;;;;;;35.32;31.37;100368.84;5101414;28;20196;-67
2022/08/16 09:45:40;;;;;;;8.53;6.80;;;;;;;35.13;31.25;100365.28;5101031;28;20422;-72
2022/08/16 09:48:07;;;;;;;8.70;6.43;;;;;;;35.72;31.49;100359.34;5100914;28;20406;-73
2022/08/16 09:50:34;;;;;;;7.53;6.83;;;;;;;34.40;32.48;100371.56;5101584;28;20209;-71
2022/08/16 09:53:00;;;;;;;7.60;6.90;;;;;;;35.86;31.00;100366.94;5100770;28;20406;-69
2022/08/16 09:55:26;;;;;;;8.00;7.30;;;;;;;35.24;31.61;100373.16;5100735;28;20469;-71
2022/08/16 09:57:51;;;;;;;8.53;7.00;;;;;;;35.41;32.34;100374.22;5101269;28;20402;-70
2022/08/16 10:00:17;;;;;;;8.70;7.20;;;;;;;35.15;31.64;100374.09;5100791;28;20460;-69
2022/08/16 10:02:43;;;;;;;7.40;6.70;;;;;;;34.73;32.32;100374.66;5100625;28;20348;-70
2022/08/16 10:05:08;;;;;;;8.67;7.77;;;;;;;35.94;31.25;100373.41;5101016;28;20168;-71
2022/08/16 10:07:34;;;;;;;7.87;7.17;;;;;;;34.61;33.34;100378.56;5083086;28;20546;-69
2022/08/16 10:09:59;;;;;;;8.07;7.37;;;;;;;35.45;32.17;100369.31;5100610;28;20217;-72
2022/08/16 10:15:12;;;;;;;8.40;7.70;;;;;;;35.38;30.84;100374.50;5100386;28;20178;-70
2022/08/16 10:17:41;;;;;;;7.30;6.80;;;;;;;35.41;31.82;100382.34;5100592;28;20839;-70
2022/08/16 10:20:13;;;;;;;8.17;7.57;;;;;;;36.17;30.63;100368.28;5100428;28;20505;-70
2022/08/16 10:22:39;;;;;;;8.03;6.63;;;;;;;36.15;30.59;100373.03;5100347;28;20457;-69
2022/08/16 10:25:05;;;;;;;7.67;7.00;;;;;;;34.22;33.30;100372.31;5100204;28;20448;-68
2022/08/16 10:27:31;;;;;;;8.20;7.40;;;;;;;35.74;31.63;100363.59;5100438;28;20164;-69
2022/08/16 10:29:56;;;;;;;7.20;6.70;;;;;;;36.04;31.10;100364.16;5100365;28;20475;-68
2022/08/16 10:32:22;;;;;;;7.63;7.00;;;;;;;35.31;31.33;100367.13;5100023;28;20426;-68
2022/08/16 10:34:48;;;;;;;8.40;7.70;;;;;;;34.23;34.14;100374.03;5100158;28;20537;-68
2022/08/16 10:37:13;;;;;;;10.50;7.90;;;;;;;34.63;33.01;100368.41;5100531;28;20462;-70
2022/08/16 10:39:39;;;;;;;8.50;7.70;;;;;;;35.73;31.77;100363.75;5099983;28;20188;-68
2022/08/16 10:42:05;;;;;;;7.83;7.03;;;;;;;34.95;32.19;100364.41;5099871;28;20236;-69
2022/08/16 10:44:31;;;;;;;9.00;8.30;;;;;;;33.74;34.36;100375.97;5100131;28;20164;-69
2022/08/16 10:46:56;;;;;;;8.47;7.80;;;;;;;34.52;33.10;100364.06;5100060;28;20422;-68
2022/08/16 10:49:21;;;;;;;10.37;8.33;;;;;;;34.91;32.93;100370.16;5099642;28;20490;-68
2022/08/16 10:51:47;;;;;;;8.93;8.03;;;;;;;34.65;33.21;100372.69;5099925;28;20175;-71
2022/08/16 10:54:12;;;;;;;7.83;7.23;;;;;;;34.44;33.41;100375.66;5099329;28;20231;-68
2022/08/16 10:56:38;;;;;;;8.00;7.17;;;;;;;34.39;33.46;100369.84;5099643;28;20526;-69
2022/08/16 10:59:04;;;;;;;7.90;7.30;;;;;;;34.30;33.38;100368.91;5100074;28;20164;-68
2022/08/16 11:01:30;;;;;;;7.77;7.13;;;;;;;33.16;37.82;100374.97;5099587;28;20168;-68
2022/08/16 11:03:56;;;;;;;8.73;7.93;;;;;;;31.78;37.35;100382.66;5098632;28;20421;-69
2022/08/16 11:06:21;;;;;;;8.70;7.90;;;;;;;31.23;38.35;100389.84;5100011;28;20469;-68
2022/08/16 11:08:49;;;;;;;8.70;8.07;;;;;;;30.03;40.77;100397.59;5099373;28;20562;-68
2022/08/16 11:11:14;;;;;;;8.57;7.97;;;;;;;31.05;39.22;100396.75;5098687;28;20425;-69
2022/08/16 11:13:40;;;;;;;9.27;8.17;;;;;;;32.04;37.43;100393.88;5099481;28;20414;-69